createdAt,value
2022-10-15T00:00:50.389Z,16.90
2022-10-15T00:03:18.298Z,16.90
2022-10-15T00:05:46.101Z,16.90
2022-10-15T00:08:13.977Z,16.90
2022-10-15T00:10:43.150Z,16.90
2022-10-15T00:13:10.979Z,16.90
2022-10-15T00:15:39.066Z,16.90
2022-10-15T00:18:06.947Z,16.80
2022-10-15T00:20:34.757Z,16.80
2022-10-15T00:23:02.558Z,16.80
2022-10-15T00:25:30.367Z,16.80
2022-10-15T00:27:59.538Z,16.80
2022-10-15T00:30:27.358Z,16.80
2022-10-15T00:32:55.165Z,16.80
2022-10-15T00:35:22.967Z,16.80
2022-10-15T00:37:50.776Z,16.80
2022-10-15T00:40:19.947Z,16.80
2022-10-15T00:42:47.822Z,16.80
2022-10-15T00:45:17.600Z,16.80
2022-10-15T00:47:48.852Z,16.80
2022-10-15T00:50:19.797Z,16.80
2022-10-15T00:52:58.016Z,16.80
2022-10-15T00:55:29.510Z,16.80
2022-10-15T00:57:59.943Z,16.80
2022-10-15T01:00:29.460Z,16.80
2022-10-15T01:02:57.318Z,16.80
2022-10-15T01:05:25.595Z,16.80
2022-10-15T01:07:53.461Z,16.80
2022-10-15T01:10:22.055Z,16.80
2022-10-15T01:12:59.760Z,16.80
2022-10-15T01:15:33.072Z,16.80
2022-10-15T01:18:07.507Z,16.80
2022-10-15T01:20:50.561Z,16.80
2022-10-15T01:23:45.712Z,16.80
2022-10-15T01:26:48.696Z,16.80
2022-10-15T01:29:34.862Z,16.80
2022-10-15T01:32:08.762Z,16.80
2022-10-15T01:34:44.713Z,16.80
2022-10-15T01:37:20.379Z,16.80
2022-10-15T01:39:54.017Z,16.70
2022-10-15T01:42:29.004Z,16.70
2022-10-15T01:45:01.268Z,16.70
2022-10-15T01:47:35.446Z,16.70
2022-10-15T01:50:05.988Z,16.70
2022-10-15T01:52:38.260Z,16.70
2022-10-15T01:55:10.798Z,16.70
2022-10-15T01:57:40.522Z,16.70
2022-10-15T02:00:09.512Z,16.70
2022-10-15T02:02:38.807Z,16.70
2022-10-15T02:05:09.656Z,16.70
2022-10-15T02:07:44.989Z,16.70
2022-10-15T02:10:21.496Z,16.70
2022-10-15T02:13:02.750Z,16.70
2022-10-15T02:15:36.927Z,16.70
2022-10-15T02:18:13.630Z,16.70
2022-10-15T02:20:46.611Z,16.70
2022-10-15T02:23:18.694Z,16.70
2022-10-15T02:25:47.882Z,16.70
2022-10-15T02:28:18.690Z,16.70
2022-10-15T02:30:50.008Z,16.70
2022-10-15T02:33:20.774Z,16.60
2022-10-15T02:35:50.697Z,16.70
2022-10-15T02:38:21.762Z,16.70
2022-10-15T02:40:50.486Z,16.60
2022-10-15T02:43:20.989Z,16.60
2022-10-15T02:45:49.352Z,16.60
2022-10-15T02:48:17.340Z,16.60
2022-10-15T02:50:46.468Z,16.60
2022-10-15T02:53:14.264Z,16.60
2022-10-15T02:55:42.123Z,16.60
2022-10-15T02:58:09.989Z,16.60
2022-10-15T03:00:37.826Z,16.60
2022-10-15T03:03:05.857Z,16.60
2022-10-15T03:05:35.363Z,16.60
2022-10-15T03:08:04.631Z,16.50
2022-10-15T03:10:32.512Z,16.50
2022-10-15T03:13:04.374Z,16.50
2022-10-15T03:15:32.253Z,16.50
2022-10-15T03:18:00.100Z,16.50
2022-10-15T03:20:27.888Z,16.50
2022-10-15T03:22:55.722Z,16.50
2022-10-15T03:25:24.873Z,16.50
2022-10-15T03:27:52.809Z,16.50
2022-10-15T03:30:20.689Z,16.50
2022-10-15T03:32:48.791Z,16.50
2022-10-15T03:35:16.789Z,16.50
2022-10-15T03:37:44.787Z,16.50
2022-10-15T03:40:13.829Z,16.50
2022-10-15T03:42:43.892Z,16.50
2022-10-15T03:45:12.210Z,16.50
2022-10-15T03:47:40.042Z,16.50
2022-10-15T03:50:08.294Z,16.50
2022-10-15T03:52:37.037Z,16.50
2022-10-15T03:55:05.519Z,16.50
2022-10-15T03:57:33.400Z,16.50
2022-10-15T04:00:02.701Z,16.50
2022-10-15T04:02:33.087Z,16.50
2022-10-15T04:05:00.925Z,16.50
2022-10-15T04:07:28.789Z,16.50
2022-10-15T04:09:56.606Z,16.60
2022-10-15T04:12:24.923Z,16.50
2022-10-15T04:14:53.013Z,16.50
2022-10-15T04:17:22.179Z,16.60
2022-10-15T04:19:49.965Z,16.60
2022-10-15T04:22:18.062Z,16.60
2022-10-15T04:24:45.880Z,16.60
2022-10-15T04:29:48.880Z,16.60
2022-10-15T04:32:17.058Z,16.60
2022-10-15T04:34:47.205Z,16.60
2022-10-15T04:37:15.162Z,16.60
2022-10-15T04:39:42.973Z,16.70
2022-10-15T04:42:10.798Z,16.70
2022-10-15T04:44:38.681Z,16.70
2022-10-15T04:47:06.520Z,16.70
2022-10-15T04:49:34.312Z,16.70
2022-10-15T04:52:03.506Z,16.80
2022-10-15T04:54:31.381Z,16.70
2022-10-15T04:56:59.298Z,16.80
2022-10-15T04:59:27.423Z,16.80
2022-10-15T05:01:55.276Z,16.80
2022-10-15T05:04:23.168Z,16.80
2022-10-15T05:06:50.985Z,16.80
2022-10-15T05:09:20.128Z,16.80
2022-10-15T05:11:47.930Z,16.80
2022-10-15T05:14:16.116Z,16.90
2022-10-15T05:16:44.153Z,16.90
2022-10-15T05:19:12.832Z,16.90
2022-10-15T05:21:40.731Z,16.90
2022-10-15T05:24:08.581Z,16.90
2022-10-15T05:26:37.759Z,17.00
2022-10-15T05:29:05.680Z,17.00
2022-10-15T05:31:34.790Z,17.00
2022-10-15T05:34:07.938Z,17.00
2022-10-15T05:36:36.925Z,17.00
2022-10-15T05:39:07.051Z,17.10
2022-10-15T05:41:34.940Z,17.10
2022-10-15T05:44:04.231Z,17.10
2022-10-15T05:46:32.024Z,17.10
2022-10-15T05:49:00.110Z,17.10
2022-10-15T05:51:29.348Z,17.20
2022-10-15T05:53:58.429Z,17.20
2022-10-15T05:56:26.877Z,17.20
2022-10-15T05:58:55.322Z,17.30
2022-10-15T06:01:24.582Z,17.30
2022-10-15T06:03:52.709Z,17.30
2022-10-15T06:06:22.332Z,17.30
2022-10-15T06:08:50.980Z,17.30
2022-10-15T06:11:19.410Z,17.40
2022-10-15T06:13:47.968Z,17.40
2022-10-15T06:16:21.084Z,17.40
2022-10-15T06:18:53.506Z,17.40
2022-10-15T06:21:21.563Z,17.40
2022-10-15T06:23:49.503Z,17.50
2022-10-15T06:26:18.613Z,17.50
2022-10-15T06:28:46.485Z,17.50
2022-10-15T06:31:14.361Z,17.50
2022-10-15T06:33:42.176Z,17.60
2022-10-15T06:36:13.514Z,17.50
2022-10-15T06:38:43.959Z,17.60
2022-10-15T06:41:12.161Z,17.60
2022-10-15T06:43:40.003Z,17.60
2022-10-15T06:46:07.900Z,17.60
2022-10-15T06:48:36.243Z,17.60
2022-10-15T06:51:04.766Z,17.60
2022-10-15T06:53:34.657Z,17.60
2022-10-15T06:56:03.902Z,17.60
2022-10-15T06:58:32.174Z,17.70
2022-10-15T07:01:04.153Z,17.70
2022-10-15T07:03:32.097Z,17.70
2022-10-15T07:06:04.382Z,17.70
2022-10-15T07:08:33.981Z,17.70
2022-10-15T07:11:03.063Z,17.70
2022-10-15T07:13:31.372Z,17.70
2022-10-15T07:15:59.278Z,17.80
2022-10-15T07:18:27.068Z,17.80
2022-10-15T07:20:54.847Z,17.80
2022-10-15T07:23:26.983Z,17.80
2022-10-15T07:25:58.818Z,17.80
2022-10-15T07:28:27.285Z,17.90
2022-10-15T07:30:55.118Z,17.90
2022-10-15T07:33:22.941Z,17.90
2022-10-15T07:35:50.725Z,17.90
2022-10-15T07:38:18.927Z,17.90
2022-10-15T07:40:46.741Z,17.90
2022-10-15T07:43:16.599Z,17.90
2022-10-15T07:45:49.071Z,17.90
2022-10-15T07:48:16.983Z,18.00
2022-10-15T07:50:44.796Z,18.00
2022-10-15T07:53:12.680Z,18.00
2022-10-15T07:55:40.477Z,18.00
2022-10-15T07:58:08.787Z,18.00
2022-10-15T08:00:37.971Z,18.00
2022-10-15T08:03:05.849Z,18.00
2022-10-15T08:05:34.699Z,18.00
2022-10-15T08:08:02.736Z,18.00
2022-10-15T08:10:30.817Z,18.10
2022-10-15T08:12:58.652Z,18.10
2022-10-15T08:15:26.501Z,18.10
2022-10-15T08:17:55.658Z,18.20
2022-10-15T08:20:23.497Z,18.20
2022-10-15T08:22:51.291Z,18.30
2022-10-15T08:25:19.063Z,18.40
2022-10-15T08:27:46.854Z,18.40
2022-10-15T08:30:14.668Z,18.50
2022-10-15T08:32:42.473Z,18.50
2022-10-15T08:35:11.797Z,18.50
2022-10-15T08:37:39.628Z,18.50
2022-10-15T08:40:09.024Z,18.50
2022-10-15T08:42:39.349Z,18.50
2022-10-15T08:45:15.040Z,18.50
2022-10-15T08:47:46.823Z,18.50
2022-10-15T08:50:27.580Z,18.50
2022-10-15T08:52:59.375Z,18.50
2022-10-15T08:55:30.701Z,18.50
2022-10-15T08:58:02.099Z,18.50
2022-10-15T09:00:36.327Z,18.60
2022-10-15T09:03:12.397Z,18.60
2022-10-15T09:05:51.513Z,18.60
2022-10-15T09:08:25.657Z,18.70
2022-10-15T09:10:57.268Z,18.70
2022-10-15T09:13:29.300Z,18.70
2022-10-15T09:16:04.735Z,18.80
2022-10-15T09:18:36.306Z,18.90
2022-10-15T09:21:07.357Z,19.00
2022-10-15T09:23:36.437Z,19.10
2022-10-15T09:26:10.953Z,19.20
2022-10-15T09:28:44.489Z,19.40
2022-10-15T09:31:17.777Z,19.60
2022-10-15T09:33:49.963Z,19.80
2022-10-15T09:36:34.850Z,20.00
2022-10-15T09:39:16.926Z,20.20
2022-10-15T09:41:54.104Z,20.30
2022-10-15T09:44:25.521Z,20.50
2022-10-15T09:46:53.417Z,20.60
2022-10-15T09:49:24.872Z,20.80
2022-10-15T09:52:03.578Z,20.90
2022-10-15T09:54:41.598Z,20.90
2022-10-15T09:57:11.033Z,21.00
2022-10-15T09:59:38.852Z,21.00
2022-10-15T10:02:19.778Z,21.00
2022-10-15T10:04:47.653Z,21.00
2022-10-15T10:07:33.586Z,21.10
2022-10-15T10:10:04.781Z,21.10
2022-10-15T10:12:35.998Z,21.20
2022-10-15T10:15:06.850Z,21.20
2022-10-15T10:17:34.784Z,21.40
2022-10-15T10:20:15.188Z,21.50
2022-10-15T10:22:49.047Z,21.70
2022-10-15T10:25:31.441Z,21.80
2022-10-15T10:28:05.456Z,21.80
2022-10-15T10:30:36.681Z,21.80
2022-10-15T10:33:05.597Z,21.80
2022-10-15T10:35:44.825Z,21.80
2022-10-15T10:38:22.097Z,21.80
2022-10-15T10:40:55.245Z,21.70
2022-10-15T10:43:26.301Z,21.70
2022-10-15T10:45:58.958Z,21.70
2022-10-15T10:48:29.246Z,21.70
2022-10-15T10:51:10.508Z,21.70
2022-10-15T10:53:53.957Z,21.80
2022-10-15T10:56:24.888Z,22.00
2022-10-15T10:58:59.476Z,22.10
2022-10-15T11:01:28.148Z,22.30
2022-10-15T11:03:55.997Z,22.60
2022-10-15T11:06:42.730Z,23.10
2022-10-15T11:09:27.425Z,23.90
2022-10-15T11:12:06.485Z,24.80
2022-10-15T11:14:46.144Z,25.50
2022-10-15T11:17:24.654Z,26.00
2022-10-15T11:20:20.971Z,26.30
2022-10-15T11:23:01.209Z,26.40
2022-10-15T11:25:39.990Z,26.50
2022-10-15T11:28:22.341Z,26.50
2022-10-15T11:30:56.153Z,26.70
2022-10-15T11:33:40.987Z,27.20
2022-10-15T11:36:30.391Z,28.10
2022-10-15T11:39:04.653Z,29.40
2022-10-15T11:41:44.537Z,30.90
2022-10-15T11:44:36.737Z,32.10
2022-10-15T11:50:05.785Z,33.60
2022-10-15T11:52:48.913Z,34.10
2022-10-15T11:55:21.458Z,34.30
2022-10-15T11:57:54.842Z,34.30
2022-10-15T12:00:33.420Z,34.30
2022-10-15T12:03:06.390Z,34.10
2022-10-15T12:05:38.608Z,33.70
2022-10-15T12:08:08.172Z,33.40
2022-10-15T12:10:49.909Z,33.20
2022-10-15T12:13:28.729Z,32.80
2022-10-15T12:16:06.413Z,32.30
2022-10-15T12:18:39.744Z,31.80
2022-10-15T12:21:32.854Z,31.30
2022-10-15T12:24:00.917Z,30.80
2022-10-15T12:26:32.393Z,30.20
2022-10-15T12:29:04.594Z,29.80
2022-10-15T12:31:47.588Z,29.40
2022-10-15T12:34:28.865Z,29.00
2022-10-15T12:37:09.276Z,28.60
2022-10-15T12:39:57.715Z,28.20
2022-10-15T12:42:29.053Z,27.90
2022-10-15T12:45:02.497Z,27.50
2022-10-15T12:47:50.441Z,27.20
2022-10-15T12:50:21.578Z,26.80
2022-10-15T12:53:01.521Z,26.50
2022-10-15T12:55:32.767Z,26.20
2022-10-15T12:58:34.236Z,25.90
2022-10-15T13:01:27.704Z,25.60
2022-10-15T13:03:58.390Z,25.40
2022-10-15T13:06:34.939Z,25.10
2022-10-15T13:09:30.714Z,25.00
2022-10-15T13:12:00.819Z,24.80
2022-10-15T13:14:36.022Z,24.60
2022-10-15T13:17:07.628Z,24.40
2022-10-15T13:19:38.874Z,24.40
2022-10-15T13:22:20.910Z,24.20
2022-10-15T13:24:48.895Z,24.20
2022-10-15T13:27:22.802Z,24.10
2022-10-15T13:29:58.477Z,24.10
2022-10-15T13:32:29.864Z,24.00
2022-10-15T13:34:59.597Z,23.90
2022-10-15T13:37:32.490Z,23.90
2022-10-15T13:40:04.625Z,23.80
2022-10-15T13:42:35.874Z,23.70
2022-10-15T13:45:16.341Z,23.70
2022-10-15T13:47:50.117Z,23.60
2022-10-15T13:50:24.142Z,23.50
2022-10-15T13:52:56.252Z,23.40
2022-10-15T13:55:26.529Z,23.40
2022-10-15T13:58:01.431Z,23.40
2022-10-15T14:00:32.636Z,23.30
2022-10-15T14:03:22.904Z,23.30
2022-10-15T14:05:52.556Z,23.20
2022-10-15T14:08:28.684Z,23.20
2022-10-15T14:10:59.216Z,23.10
2022-10-15T14:13:27.600Z,23.10
2022-10-15T14:18:37.795Z,23.00
2022-10-15T14:21:12.879Z,23.00
2022-10-15T14:23:42.933Z,23.00
2022-10-15T14:26:11.655Z,23.00
2022-10-15T14:28:40.881Z,23.00
2022-10-15T14:31:09.214Z,23.00
2022-10-15T14:33:47.505Z,23.00
2022-10-15T14:36:25.930Z,22.90
2022-10-15T14:38:54.861Z,22.90
2022-10-15T14:41:28.683Z,22.90
2022-10-15T14:44:20.141Z,22.90
2022-10-15T14:46:50.273Z,22.80
2022-10-15T14:49:24.004Z,22.80
2022-10-15T14:51:57.453Z,22.80
2022-10-15T14:54:31.625Z,22.70
2022-10-15T14:56:59.600Z,22.70
2022-10-15T14:59:31.596Z,22.70
2022-10-15T15:02:03.183Z,22.60
2022-10-15T15:04:42.348Z,22.60
2022-10-15T15:07:19.274Z,22.60
2022-10-15T15:09:51.210Z,22.50
2022-10-15T15:12:25.595Z,22.50
2022-10-15T15:14:56.387Z,22.40
2022-10-15T15:17:26.886Z,22.40
2022-10-15T15:19:57.545Z,22.40
2022-10-15T15:22:30.562Z,22.30
2022-10-15T15:25:00.058Z,22.30
2022-10-15T15:27:29.924Z,22.20
2022-10-15T15:29:58.998Z,22.10
2022-10-15T15:32:27.019Z,22.10
2022-10-15T15:34:58.557Z,22.00
2022-10-15T15:37:27.669Z,22.00
2022-10-15T15:39:56.245Z,21.90
2022-10-15T15:42:26.062Z,21.90
2022-10-15T15:44:54.202Z,21.80
2022-10-15T15:47:22.001Z,21.70
2022-10-15T15:49:49.785Z,21.60
2022-10-15T15:52:19.015Z,21.50
2022-10-15T15:54:47.191Z,21.40
2022-10-15T15:57:15.669Z,21.30
2022-10-15T15:59:43.480Z,21.30
2022-10-15T16:02:12.717Z,21.20
2022-10-15T16:04:40.526Z,21.10
2022-10-15T16:07:10.397Z,21.10
2022-10-15T16:09:42.689Z,21.00
2022-10-15T16:12:10.484Z,20.90
2022-10-15T16:14:38.371Z,20.90
2022-10-15T16:17:06.164Z,20.80
2022-10-15T16:19:34.015Z,20.80
2022-10-15T16:22:01.815Z,20.70
2022-10-15T16:24:29.615Z,20.70
2022-10-15T16:26:58.894Z,20.70
2022-10-15T16:29:26.769Z,20.60
2022-10-15T16:31:54.575Z,20.60
2022-10-15T16:34:22.466Z,20.60
2022-10-15T16:36:50.288Z,20.50
2022-10-15T16:39:18.391Z,20.50
2022-10-15T16:41:46.202Z,20.50
2022-10-15T16:44:15.350Z,20.40
2022-10-15T16:46:43.334Z,20.40
2022-10-15T16:49:11.219Z,20.40
2022-10-15T16:51:41.398Z,20.30
2022-10-15T16:54:13.769Z,20.30
2022-10-15T16:56:41.803Z,20.20
2022-10-15T16:59:09.838Z,20.20
2022-10-15T17:01:39.043Z,20.20
2022-10-15T17:04:06.880Z,20.20
2022-10-15T17:06:34.691Z,20.10
2022-10-15T17:09:04.551Z,20.10
2022-10-15T17:11:34.600Z,20.10
2022-10-15T17:14:04.694Z,20.10
2022-10-15T17:16:34.390Z,20.10
2022-10-15T17:19:03.962Z,20.00
2022-10-15T17:21:32.476Z,20.00
2022-10-15T17:24:02.619Z,20.00
2022-10-15T17:26:36.031Z,20.00
2022-10-15T17:29:04.109Z,19.90
2022-10-15T17:31:32.241Z,19.90
2022-10-15T17:34:03.692Z,19.90
2022-10-15T17:36:33.212Z,19.90
2022-10-15T17:39:01.178Z,19.80
2022-10-15T17:41:30.926Z,19.80
2022-10-15T17:43:59.150Z,19.70
2022-10-15T17:46:28.907Z,19.70
2022-10-15T17:48:57.912Z,19.60
2022-10-15T17:51:29.299Z,19.60
2022-10-15T17:53:57.585Z,19.50
2022-10-15T17:56:27.931Z,19.50
2022-10-15T17:58:56.233Z,19.50
2022-10-15T18:01:39.254Z,19.50
2022-10-15T18:04:07.904Z,19.50
2022-10-15T18:06:37.058Z,19.50
2022-10-15T18:09:04.996Z,19.40
2022-10-15T18:11:35.477Z,19.40
2022-10-15T18:14:04.002Z,19.40
2022-10-15T18:16:32.178Z,19.30
2022-10-15T18:19:00.182Z,19.30
2022-10-15T18:21:28.753Z,19.20
2022-10-15T18:24:00.781Z,19.20
2022-10-15T18:26:28.649Z,19.10
2022-10-15T18:28:56.534Z,19.10
2022-10-15T18:31:25.930Z,19.10
2022-10-15T18:33:55.924Z,19.00
2022-10-15T18:36:25.787Z,19.00
2022-10-15T18:38:55.445Z,19.00
2022-10-15T18:41:27.759Z,18.90
2022-10-15T18:43:57.957Z,18.90
2022-10-15T18:46:27.383Z,18.90
2022-10-15T18:48:55.452Z,18.80
2022-10-15T18:51:25.077Z,18.80
2022-10-15T18:53:53.260Z,18.80
2022-10-15T18:56:22.033Z,18.80
2022-10-15T18:58:52.381Z,18.70
2022-10-15T19:01:27.617Z,18.70
2022-10-15T19:03:56.078Z,18.70
2022-10-15T19:06:25.539Z,18.70
2022-10-15T19:08:53.691Z,18.70
2022-10-15T19:11:21.491Z,18.70
2022-10-15T19:13:50.645Z,18.70
2022-10-15T19:16:18.453Z,18.70
2022-10-15T19:18:46.262Z,18.70
2022-10-15T19:21:14.058Z,18.70
2022-10-15T19:23:41.880Z,18.80
2022-10-15T19:26:10.782Z,18.80
2022-10-15T19:28:38.976Z,18.80
2022-10-15T19:31:09.793Z,18.80
2022-10-15T19:33:38.734Z,18.80
2022-10-15T19:36:06.901Z,18.80
2022-10-15T19:38:35.001Z,18.80
2022-10-15T19:41:04.234Z,18.80
2022-10-15T19:43:32.135Z,18.80
2022-10-15T19:46:04.129Z,18.80
2022-10-15T19:48:33.425Z,18.80
2022-10-15T19:51:02.302Z,18.80
2022-10-15T19:53:32.557Z,18.80
2022-10-15T19:56:02.365Z,18.80
2022-10-15T19:58:30.664Z,18.80
2022-10-15T20:00:58.853Z,18.80
2022-10-15T20:03:28.982Z,18.80
2022-10-15T20:05:58.933Z,18.80
2022-10-15T20:08:27.000Z,18.80
2022-10-15T20:10:55.181Z,18.80
2022-10-15T20:13:23.941Z,18.80
2022-10-15T20:15:53.152Z,18.80
2022-10-15T20:18:21.763Z,18.80
2022-10-15T20:20:49.941Z,18.80
2022-10-15T20:23:19.193Z,18.80
2022-10-15T20:25:47.642Z,18.80
2022-10-15T20:28:18.158Z,18.80
2022-10-15T20:30:47.142Z,18.80
2022-10-15T20:33:15.196Z,18.80
2022-10-15T20:35:43.441Z,18.80
2022-10-15T20:38:12.409Z,18.80
2022-10-15T20:40:42.237Z,18.80
2022-10-15T20:43:10.180Z,18.90
2022-10-15T20:45:43.656Z,18.80
2022-10-15T20:48:19.261Z,18.80
2022-10-15T20:50:49.160Z,18.80
2022-10-15T20:53:17.992Z,18.80
2022-10-15T20:55:47.144Z,18.70
2022-10-15T21:00:48.120Z,18.70
2022-10-15T21:03:15.900Z,18.70
2022-10-15T21:05:43.717Z,18.60
2022-10-15T21:08:11.698Z,18.60
2022-10-15T21:10:39.537Z,18.50
2022-10-15T21:13:08.665Z,18.50
2022-10-15T21:15:36.524Z,18.40
2022-10-15T21:18:04.519Z,18.40
2022-10-15T21:20:32.337Z,18.40
2022-10-15T21:23:00.113Z,18.30
2022-10-15T21:25:27.997Z,18.30
2022-10-15T21:27:55.807Z,18.20
2022-10-15T21:30:24.954Z,18.20
2022-10-15T21:32:52.782Z,18.10
2022-10-15T21:35:20.731Z,18.10
2022-10-15T21:37:48.509Z,18.10
2022-10-15T21:40:16.414Z,18.00
2022-10-15T21:42:44.205Z,18.00
2022-10-15T21:45:12.236Z,18.00
2022-10-15T21:47:41.383Z,18.00
2022-10-15T21:50:09.899Z,17.90
2022-10-15T21:52:37.736Z,17.90
2022-10-15T21:55:06.481Z,17.90
2022-10-15T21:57:34.575Z,17.90
2022-10-15T22:00:02.433Z,17.90
2022-10-15T22:02:30.263Z,17.80
2022-10-15T22:04:59.403Z,17.80
2022-10-15T22:07:27.549Z,17.80
2022-10-15T22:09:55.881Z,17.80
2022-10-15T22:12:24.118Z,17.70
2022-10-15T22:14:52.213Z,17.70
2022-10-15T22:17:20.802Z,17.70
2022-10-15T22:19:48.572Z,17.60
2022-10-15T22:22:17.757Z,17.60
2022-10-15T22:24:45.556Z,17.50
2022-10-15T22:27:13.649Z,17.40
2022-10-15T22:29:42.114Z,17.40
2022-10-15T22:32:09.936Z,17.40
2022-10-15T22:34:37.896Z,17.30
2022-10-15T22:37:05.721Z,17.20
2022-10-15T22:39:34.947Z,17.20
2022-10-15T22:42:04.113Z,17.10
2022-10-15T22:44:31.952Z,17.10
2022-10-15T22:46:59.737Z,17.10
2022-10-15T22:49:27.721Z,17.00
2022-10-15T22:51:55.538Z,17.00
2022-10-15T22:54:24.271Z,17.00
2022-10-15T22:56:53.487Z,17.00
2022-10-15T22:59:21.773Z,17.00
2022-10-15T23:01:49.644Z,17.00
2022-10-15T23:04:17.572Z,17.00
2022-10-15T23:06:45.652Z,17.00
2022-10-15T23:09:17.384Z,16.90
2022-10-15T23:11:45.897Z,16.90
2022-10-15T23:14:17.270Z,16.90
2022-10-15T23:16:47.006Z,16.90
2022-10-15T23:19:17.263Z,16.80
2022-10-15T23:21:46.746Z,16.80
2022-10-15T23:24:16.438Z,16.80
2022-10-15T23:26:44.643Z,16.80
2022-10-15T23:29:17.471Z,16.80
2022-10-15T23:31:46.138Z,16.80
2022-10-15T23:34:15.990Z,16.80
2022-10-15T23:36:43.994Z,16.70
2022-10-15T23:39:14.317Z,16.80
2022-10-15T23:41:42.409Z,16.70
2022-10-15T23:44:10.353Z,16.70
2022-10-15T23:46:40.066Z,16.70
2022-10-15T23:49:08.694Z,16.70
2022-10-15T23:51:36.861Z,16.70
2022-10-15T23:54:10.785Z,16.60
2022-10-15T23:56:38.742Z,16.60
2022-10-15T23:59:06.594Z,16.60
